This is the latest recevied weather packets stored in our database for station/object KI6PPU. If no packets are shown the sender has not sent any weather packets the latest 1 day(s).
| Time | Temp. | Humidity | Pressure | Rain* | Wind** | Luminosity | Snow |
|---|---|---|---|---|---|---|---|
| 1836274725 | 20.56° C | 80% | 1016.7 hPa | 0 mm | 0 m/s | 0 W/m² | - |
| 1836274578 | 20.56° C | 81% | 1016.9 hPa | 0 mm | 0 m/s | 0 W/m² | - |
| 1836274424 | 20.56° C | 79% | 1016.7 hPa | 0 mm | 0 m/s | 0 W/m² | - |
| 1836274278 | 20.56° C | 81% | 1016.8 hPa | 0 mm | 0 m/s | 0 W/m² | - |
| 1836274122 | 20.56° C | 79% | 1016.7 hPa | 0 mm | 0 m/s | 0 W/m² | - |
| 1778035827 | 13.89° C | 88% | 1018.3 hPa | 0 mm | 0 m/s | 1 W/m² | - |
| 1778035524 | 14.44° C | 88% | 1018.3 hPa | 0 mm | 0 m/s | 2 W/m² | - |
| 1778035220 | 14.44° C | 86% | 1018.2 hPa | 0 mm | 0 m/s | 5 W/m² | - |
| 1778034916 | 14.44° C | 86% | 1018.2 hPa | 0 mm | 0 m/s | 7 W/m² | - |
| 1778034614 | 15° C | 85% | 1018.2 hPa | 0 mm | 0 m/s | 11 W/m² | - |
| 1778034311 | 15° C | 84% | 1018.1 hPa | 0 mm | 0.45 m/s, 206° | 15 W/m² | - |
| 1778034009 | 15° C | 84% | 1018.1 hPa | 0 mm | 0.45 m/s, 105° | 22 W/m² | - |
| 1778033706 | 15° C | 82% | 1018.1 hPa | 0 mm | 0 m/s | 28 W/m² | - |
| 1778033403 | 15° C | 83% | 1018 hPa | 0 mm | 0 m/s | 32 W/m² | - |
| 1778033101 | 15° C | 83% | 1017.7 hPa | 0 mm | 0.89 m/s, 159° | 39 W/m² | - |
| 1778032797 | 15° C | 83% | 1017.6 hPa | 0 mm | 0.89 m/s, 152° | 43 W/m² | - |
| 1778032495 | 15° C | 84% | 1017.6 hPa | 0 mm | 1.34 m/s, 151° | 53 W/m² | - |
| 1778032192 | 15° C | 83% | 1017.9 hPa | 0 mm | 0 m/s | 64 W/m² | - |
| 1778031889 | 15° C | 83% | 1017.7 hPa | 0 mm | 1.34 m/s, 144° | 61 W/m² | - |
| 1778031585 | 15° C | 83% | 1018 hPa | 0 mm | 0.45 m/s, 173° | 71 W/m² | - |
| 1778031283 | 15° C | 83% | 1017.8 hPa | 0 mm | 0.89 m/s, 147° | 60 W/m² | - |
| 1778030979 | 15° C | 83% | 1018 hPa | 0 mm | 0 m/s | 59 W/m² | - |
| 1778030676 | 15° C | 83% | 1017.9 hPa | 0 mm | 0.89 m/s, 114° | 62 W/m² | - |
| 1778030373 | 15° C | 84% | 1018 hPa | 0 mm | 0.89 m/s, 95° | 62 W/m² | - |
| 1778030071 | 15° C | 85% | 1017.9 hPa | 0 mm | 0.45 m/s, 120° | 65 W/m² | - |
* Rain latest hour (hover to see other rain measurements)
** Current wind speed in m/s (hover to see current wind gust speed)